Time;durP1;ratioP1;P1;durP2;ratioP2;P2;SDS_P1;SDS_P2;PMS_P1;PMS_P2;Temp;Humidity;BMP_temperature;BMP_pressure;BME280_temperature;BME280_humidity;BME280_pressure;Samples;Min_cycle;Max_cycle;Signal;HPM_P1;HPM_P2
2023/03/18 00:01:46;;;;;;;;;;;10.80;99.90;;;;;;5021800;28;20384;-61
2023/03/18 00:04:12;;;;;;;;;;;10.90;99.90;;;;;;5028332;28;19936;-61
2023/03/18 00:06:38;;;;;;;;;;;10.80;99.90;;;;;;5017609;28;20350;-63
2023/03/18 00:09:03;;;;;;;;;;;10.90;99.90;;;;;;5019395;28;20015;-61
2023/03/18 00:11:30;;;;;;;;;;;10.90;99.90;;;;;;5020084;28;19920;-62
2023/03/18 00:13:56;;;;;;;;;;;10.80;99.90;;;;;;5026306;28;19943;-59
2023/03/18 00:16:22;;;;;;;;;;;10.90;99.90;;;;;;5008319;28;20313;-61
2023/03/18 00:18:48;;;;;;;;;;;10.90;99.90;;;;;;5016691;28;19975;-60
2023/03/18 00:21:15;;;;;;;;;;;10.90;99.90;;;;;;5017078;28;19920;-60
2023/03/18 00:23:41;;;;;;;;;;;10.90;99.90;;;;;;5017809;28;19917;-60
2023/03/18 00:26:07;;;;;;;;;;;10.90;99.90;;;;;;5015219;28;19991;-60
2023/03/18 00:28:33;;;;;;;;;;;10.90;99.90;;;;;;5010836;28;19913;-60
2023/03/18 00:31:07;;;;;;;;;;;10.90;99.90;;;;;;5014404;28;20377;-60
2023/03/18 00:33:37;;;;;;;;;;;11.00;99.90;;;;;;5021885;28;19913;-60
2023/03/18 00:36:03;;;;;;;;;;;11.00;99.90;;;;;;5020301;28;20399;-60
2023/03/18 00:38:29;;;;;;;;;;;11.10;99.90;;;;;;5017845;28;20005;-60
2023/03/18 00:41:03;;;;;;;;;;;11.10;99.90;;;;;;5022474;28;20019;-60
2023/03/18 00:43:32;;;;;;;;;;;11.20;99.90;;;;;;5024012;28;19952;-61
2023/03/18 00:45:59;;;;;;;;;;;11.30;99.90;;;;;;5023085;28;20244;-61
2023/03/18 00:48:25;;;;;;;;;;;11.20;99.90;;;;;;5015310;28;19913;-60
2023/03/18 00:50:51;;;;;;;;;;;11.20;99.90;;;;;;5017559;28;19913;-60
2023/03/18 00:53:17;;;;;;;;;;;11.20;99.90;;;;;;5021919;28;19913;-60
2023/03/18 00:55:42;;;;;;;;;;;11.20;99.90;;;;;;5018545;28;20273;-59
2023/03/18 00:58:09;;;;;;;;;;;11.20;99.90;;;;;;5016599;28;19921;-59
2023/03/18 01:00:36;;;;;;;;;;;11.20;99.90;;;;;;5022643;28;19960;-60
2023/03/18 01:03:01;;;;;;;;;;;11.10;99.90;;;;;;5054123;28;19913;-60
2023/03/18 01:05:27;;;;;;;;;;;11.10;99.90;;;;;;5020101;28;20007;-60
2023/03/18 01:07:53;;;;;;;;;;;11.10;99.90;;;;;;5021826;28;19913;-60
2023/03/18 01:10:19;;;;;;;;;;;11.20;99.90;;;;;;5030667;28;19988;-60
2023/03/18 01:12:46;;;;;;;;;;;11.20;99.90;;;;;;5019762;28;20254;-60
2023/03/18 01:15:12;;;;;;;;;;;11.30;99.90;;;;;;5023306;28;19920;-60
2023/03/18 01:17:38;;;;;;;;;;;11.30;99.90;;;;;;5020972;28;20004;-60
2023/03/18 01:20:04;;;;;;;;;;;11.30;99.90;;;;;;5021317;28;20420;-60
2023/03/18 01:22:29;;;;;;;;;;;11.30;99.90;;;;;;5024411;28;19917;-60
2023/03/18 01:24:56;;;;;;;;;;;11.30;99.90;;;;;;5023136;28;19957;-60
2023/03/18 01:27:21;;;;;;;;;;;11.30;99.90;;;;;;5021921;28;20361;-61
2023/03/18 01:29:47;;;;;;;;;;;11.20;99.90;;;;;;5025591;28;19925;-61
2023/03/18 01:32:13;;;;;;;;;;;11.20;99.90;;;;;;5028302;28;20332;-61
2023/03/18 01:34:40;;;;;;;;;;;11.30;99.90;;;;;;5013197;28;19913;-61
2023/03/18 01:37:06;;;;;;;;;;;11.30;99.90;;;;;;5024296;28;19913;-62
2023/03/18 01:39:33;;;;;;;;;;;11.20;99.90;;;;;;5024970;28;20381;-61
2023/03/18 01:41:59;;;;;;;;;;;11.30;99.90;;;;;;5018888;28;20008;-61
2023/03/18 01:44:25;;;;;;;;;;;11.30;99.90;;;;;;5026759;28;19917;-60
2023/03/18 01:46:51;;;;;;;;;;;11.30;99.90;;;;;;5015837;28;20349;-61
2023/03/18 01:49:19;;;;;;;;;;;11.30;99.90;;;;;;5021481;28;20318;-60
2023/03/18 01:51:55;;;;;;;;;;;11.30;99.90;;;;;;5029046;28;19948;-61
2023/03/18 01:54:21;;;;;;;;;;;11.30;99.90;;;;;;5020663;28;20396;-59
2023/03/18 01:56:47;;;;;;;;;;;11.30;99.90;;;;;;5022288;28;20051;-59
2023/03/18 01:59:14;;;;;;;;;;;11.20;99.90;;;;;;5013782;28;19921;-60
2023/03/18 02:01:43;;;;;;;;;;;11.30;99.90;;;;;;5022844;28;20376;-60
2023/03/18 02:04:09;;;;;;;;;;;11.30;99.90;;;;;;5008041;28;19924;-58
2023/03/18 02:06:36;;;;;;;;;;;11.20;99.90;;;;;;5018268;28;20007;-60
2023/03/18 02:09:02;;;;;;;;;;;11.20;99.90;;;;;;5013559;28;19924;-59
2023/03/18 02:11:30;;;;;;;;;;;11.20;99.90;;;;;;5011753;28;20377;-60
2023/03/18 02:13:57;;;;;;;;;;;11.20;99.90;;;;;;5013145;28;19925;-60
2023/03/18 02:16:24;;;;;;;;;;;11.20;99.90;;;;;;5019501;28;19952;-60
2023/03/18 02:18:55;;;;;;;;;;;11.00;99.90;;;;;;5017204;28;19955;-61
2023/03/18 02:21:23;;;;;;;;;;;11.00;99.90;;;;;;5019384;28;20351;-61
2023/03/18 02:23:52;;;;;;;;;;;10.90;99.90;;;;;;5015471;28;19953;-61
2023/03/18 02:26:17;;;;;;;;;;;11.00;99.90;;;;;;5025550;28;19992;-61
2023/03/18 02:28:44;;;;;;;;;;;11.00;99.90;;;;;;5024215;28;19992;-61
2023/03/18 02:31:11;;;;;;;;;;;11.00;99.90;;;;;;5020311;28;19913;-61
2023/03/18 02:33:38;;;;;;;;;;;11.00;99.90;;;;;;5020130;28;19918;-61
2023/03/18 02:36:05;;;;;;;;;;;11.10;99.90;;;;;;5018367;28;20013;-61
2023/03/18 02:38:31;;;;;;;;;;;11.10;99.90;;;;;;5018629;28;20369;-61
2023/03/18 02:40:56;;;;;;;;;;;11.10;99.90;;;;;;5012367;28;19921;-60
2023/03/18 02:43:24;;;;;;;;;;;11.10;99.90;;;;;;5009881;28;19913;-61
2023/03/18 02:46:08;;;;;;;;;;;11.20;99.90;;;;;;5011064;28;19913;-61
2023/03/18 02:48:38;;;;;;;;;;;11.10;99.90;;;;;;5013307;28;20361;-61
2023/03/18 02:51:05;;;;;;;;;;;11.20;99.90;;;;;;5014395;28;20331;-59
2023/03/18 02:53:30;;;;;;;;;;;11.20;99.90;;;;;;5009460;28;19963;-59
2023/03/18 02:55:56;;;;;;;;;;;11.20;99.90;;;;;;5015276;28;20060;-59
2023/03/18 02:58:21;;;;;;;;;;;11.20;99.90;;;;;;5009598;28;19949;-61
2023/03/18 03:00:47;;;;;;;;;;;11.20;99.90;;;;;;5014479;28;19975;-59
2023/03/18 03:03:13;;;;;;;;;;;11.20;99.90;;;;;;5011136;28;19921;-60
2023/03/18 03:05:38;;;;;;;;;;;11.20;99.90;;;;;;5019247;28;19913;-60
2023/03/18 03:08:04;;;;;;;;;;;11.20;99.90;;;;;;5015576;28;19960;-61
2023/03/18 03:10:30;;;;;;;;;;;11.20;99.90;;;;;;5012304;28;19961;-60
2023/03/18 03:12:56;;;;;;;;;;;11.20;99.90;;;;;;5013909;28;19913;-60
2023/03/18 03:15:21;;;;;;;;;;;11.20;99.90;;;;;;5011859;28;20008;-60
2023/03/18 03:17:48;;;;;;;;;;;11.20;99.90;;;;;;5010293;28;19922;-60
2023/03/18 03:20:14;;;;;;;;;;;11.10;99.90;;;;;;5014301;28;20012;-62
2023/03/18 03:22:41;;;;;;;;;;;11.10;99.90;;;;;;5010523;28;20314;-60
2023/03/18 03:25:08;;;;;;;;;;;11.10;99.90;;;;;;5015598;28;20277;-60
2023/03/18 03:27:34;;;;;;;;;;;11.10;99.90;;;;;;5022200;28;19921;-60
2023/03/18 03:30:00;;;;;;;;;;;11.10;99.90;;;;;;5009682;28;19921;-60
2023/03/18 03:32:25;;;;;;;;;;;11.00;99.90;;;;;;5008040;28;20392;-60
2023/03/18 03:34:51;;;;;;;;;;;11.00;99.90;;;;;;5020309;28;19952;-60
2023/03/18 03:37:16;;;;;;;;;;;11.00;99.90;;;;;;5009510;28;19984;-60
2023/03/18 03:39:43;;;;;;;;;;;11.00;99.90;;;;;;5015272;28;19925;-60
2023/03/18 03:42:09;;;;;;;;;;;11.00;99.90;;;;;;5015546;28;19920;-60
2023/03/18 03:44:35;;;;;;;;;;;11.00;99.90;;;;;;5016016;28;20008;-60
2023/03/18 03:47:00;;;;;;;;;;;11.00;99.90;;;;;;5015091;28;19913;-60
2023/03/18 03:49:26;;;;;;;;;;;11.00;99.90;;;;;;5008270;28;20343;-60
2023/03/18 03:51:52;;;;;;;;;;;11.00;99.90;;;;;;5019448;28;20349;-59
2023/03/18 03:54:18;;;;;;;;;;;11.00;99.90;;;;;;5011052;28;19920;-59
2023/03/18 03:56:44;;;;;;;;;;;11.10;99.90;;;;;;5010875;28;19920;-59
2023/03/18 03:59:10;;;;;;;;;;;11.10;99.90;;;;;;5011185;28;19922;-60
2023/03/18 04:01:36;;;;;;;;;;;11.00;99.90;;;;;;5020691;28;19925;-60
2023/03/18 04:04:02;;;;;;;;;;;11.00;99.90;;;;;;5012666;28;19913;-61
2023/03/18 04:06:28;;;;;;;;;;;11.00;99.90;;;;;;5010736;28;19925;-60
2023/03/18 04:08:54;;;;;;;;;;;11.00;99.90;;;;;;5010410;28;19967;-60
2023/03/18 04:11:20;;;;;;;;;;;10.90;99.90;;;;;;5012452;28;19913;-60
2023/03/18 04:13:46;;;;;;;;;;;11.00;99.90;;;;;;5014595;28;19968;-59
2023/03/18 04:16:13;;;;;;;;;;;11.00;99.90;;;;;;5020098;28;20392;-60
2023/03/18 04:18:39;;;;;;;;;;;11.00;99.90;;;;;;5009351;28;19920;-59
2023/03/18 04:21:04;;;;;;;;;;;11.00;99.90;;;;;;5012442;28;19921;-60
2023/03/18 04:23:31;;;;;;;;;;;11.00;99.90;;;;;;5011154;28;19971;-60
2023/03/18 04:25:57;;;;;;;;;;;11.00;99.90;;;;;;5014831;28;19960;-59
2023/03/18 04:28:23;;;;;;;;;;;11.00;99.90;;;;;;5015449;28;19965;-60
2023/03/18 04:30:49;;;;;;;;;;;11.00;99.90;;;;;;5019891;28;19920;-60
2023/03/18 04:33:15;;;;;;;;;;;11.00;99.90;;;;;;5023552;28;19913;-61
2023/03/18 04:35:43;;;;;;;;;;;11.00;99.90;;;;;;5015665;28;20312;-60
2023/03/18 04:38:09;;;;;;;;;;;11.00;99.90;;;;;;5022812;28;19919;-60
2023/03/18 04:40:34;;;;;;;;;;;10.90;99.90;;;;;;5020570;28;20020;-60
2023/03/18 04:43:00;;;;;;;;;;;10.90;99.90;;;;;;5060735;22;20017;-63
2023/03/18 04:45:26;;;;;;;;;;;10.90;99.90;;;;;;5052777;28;20288;-63
2023/03/18 04:47:52;;;;;;;;;;;10.90;99.90;;;;;;5052699;28;20007;-63
2023/03/18 04:50:18;;;;;;;;;;;10.90;99.90;;;;;;5063844;28;19946;-63
2023/03/18 04:52:44;;;;;;;;;;;10.90;99.90;;;;;;5054033;28;19916;-63
2023/03/18 04:55:10;;;;;;;;;;;11.00;99.90;;;;;;5065019;28;19913;-64
2023/03/18 04:57:37;;;;;;;;;;;11.00;99.90;;;;;;5058678;28;19913;-63
2023/03/18 05:00:04;;;;;;;;;;;11.00;99.90;;;;;;5051275;28;19963;-61
2023/03/18 05:02:30;;;;;;;;;;;11.00;99.90;;;;;;5041212;28;19917;-62
2023/03/18 05:04:56;;;;;;;;;;;11.00;99.90;;;;;;5049444;28;19913;-62
2023/03/18 05:07:22;;;;;;;;;;;10.90;99.90;;;;;;5050175;28;20355;-62
2023/03/18 05:09:48;;;;;;;;;;;10.90;99.90;;;;;;5052851;28;20353;-62
2023/03/18 05:12:14;;;;;;;;;;;11.00;99.90;;;;;;5055544;28;20360;-62
2023/03/18 05:14:41;;;;;;;;;;;10.90;99.90;;;;;;5063808;28;19955;-62
2023/03/18 05:17:07;;;;;;;;;;;11.00;99.90;;;;;;5060517;28;20288;-62
2023/03/18 05:19:33;;;;;;;;;;;10.90;99.90;;;;;;5059698;28;19975;-62
2023/03/18 05:21:59;;;;;;;;;;;10.90;99.90;;;;;;5050399;28;19998;-62
2023/03/18 05:24:24;;;;;;;;;;;10.90;99.90;;;;;;5042753;28;19913;-62
2023/03/18 05:26:50;;;;;;;;;;;10.90;99.90;;;;;;5053349;28;19923;-62
2023/03/18 05:29:15;;;;;;;;;;;10.90;99.90;;;;;;5054521;28;19913;-62
2023/03/18 05:31:41;;;;;;;;;;;11.00;99.90;;;;;;5056923;28;19912;-62
2023/03/18 05:34:07;;;;;;;;;;;11.00;99.90;;;;;;5057860;28;19918;-64
2023/03/18 05:36:33;;;;;;;;;;;10.90;99.90;;;;;;5058577;28;19931;-63
2023/03/18 05:38:59;;;;;;;;;;;10.90;99.90;;;;;;5053915;28;20280;-62
2023/03/18 05:41:24;;;;;;;;;;;10.90;99.90;;;;;;5067924;28;19926;-62
2023/03/18 05:43:50;;;;;;;;;;;10.90;99.90;;;;;;5051958;28;19963;-62
2023/03/18 05:46:16;;;;;;;;;;;10.90;99.90;;;;;;5060136;28;19919;-62
2023/03/18 05:48:42;;;;;;;;;;;10.90;99.90;;;;;;5064156;28;19958;-62
2023/03/18 05:51:08;;;;;;;;;;;11.00;99.90;;;;;;5061870;28;19935;-63
2023/03/18 05:53:33;;;;;;;;;;;10.90;99.90;;;;;;5058631;28;20279;-62
2023/03/18 05:55:59;;;;;;;;;;;10.90;99.90;;;;;;5063792;28;19916;-62
2023/03/18 05:58:29;;;;;;;;;;;10.90;99.90;;;;;;5046501;28;19913;-62
2023/03/18 06:00:55;;;;;;;;;;;10.90;99.90;;;;;;5053004;28;20019;-62
2023/03/18 06:03:23;;;;;;;;;;;10.90;99.90;;;;;;5051821;28;20012;-62
2023/03/18 06:05:49;;;;;;;;;;;10.90;99.90;;;;;;5063346;28;19913;-62
2023/03/18 06:08:14;;;;;;;;;;;10.90;99.90;;;;;;5058578;28;20363;-62
2023/03/18 06:10:40;;;;;;;;;;;10.90;99.90;;;;;;5056156;28;19963;-62
2023/03/18 06:13:06;;;;;;;;;;;10.90;99.90;;;;;;5054754;28;19982;-63
2023/03/18 06:18:35;;;;;;;;;;;10.80;99.90;;;;;;5053051;28;20409;-63
2023/03/18 06:21:00;;;;;;;;;;;10.80;99.90;;;;;;5066751;28;19928;-64
2023/03/18 06:23:26;;;;;;;;;;;10.80;99.90;;;;;;5054040;28;19912;-64
2023/03/18 06:25:51;;;;;;;;;;;10.80;99.90;;;;;;5048253;28;19962;-64
2023/03/18 06:28:17;;;;;;;;;;;10.80;99.90;;;;;;5050677;28;19920;-65
2023/03/18 06:30:43;;;;;;;;;;;10.70;99.90;;;;;;5055890;28;19919;-64
2023/03/18 06:33:09;;;;;;;;;;;10.70;99.90;;;;;;5064817;28;19945;-63
2023/03/18 06:35:35;;;;;;;;;;;10.70;99.90;;;;;;5048926;28;19913;-63
2023/03/18 06:38:01;;;;;;;;;;;10.70;99.90;;;;;;5065707;28;19913;-63
2023/03/18 06:40:27;;;;;;;;;;;10.70;99.90;;;;;;5056932;28;19920;-63
2023/03/18 06:42:53;;;;;;;;;;;10.60;99.90;;;;;;5059327;28;20016;-63
2023/03/18 06:45:19;;;;;;;;;;;10.60;99.90;;;;;;5058249;28;19917;-62
2023/03/18 06:47:45;;;;;;;;;;;10.60;99.90;;;;;;5050975;28;19920;-62
2023/03/18 06:50:12;;;;;;;;;;;10.60;99.90;;;;;;5058024;28;20350;-62
2023/03/18 06:52:38;;;;;;;;;;;10.60;99.90;;;;;;5055120;28;19935;-63
2023/03/18 06:55:05;;;;;;;;;;;10.60;99.90;;;;;;5062575;28;20379;-63
2023/03/18 06:57:31;;;;;;;;;;;10.70;99.90;;;;;;5054090;28;19913;-63
2023/03/18 06:59:57;;;;;;;;;;;10.70;99.90;;;;;;5048835;28;19952;-62
2023/03/18 07:02:24;;;;;;;;;;;10.70;99.90;;;;;;5044034;28;19913;-63
2023/03/18 07:04:50;;;;;;;;;;;10.70;99.90;;;;;;5054306;28;19962;-65
2023/03/18 07:07:15;;;;;;;;;;;10.70;99.90;;;;;;5047965;28;19966;-63
2023/03/18 07:09:43;;;;;;;;;;;10.70;99.90;;;;;;5054812;28;19916;-64
2023/03/18 07:12:12;;;;;;;;;;;10.70;99.90;;;;;;5048052;28;19917;-63
2023/03/18 07:14:38;;;;;;;;;;;10.80;99.90;;;;;;5040422;28;19920;-63
2023/03/18 07:17:04;;;;;;;;;;;10.80;99.90;;;;;;5048355;28;19939;-63
2023/03/18 07:19:32;;;;;;;;;;;10.90;99.90;;;;;;5045854;28;20393;-63
2023/03/18 07:21:58;;;;;;;;;;;11.00;99.90;;;;;;5056733;28;19917;-63
2023/03/18 07:24:23;;;;;;;;;;;11.10;99.90;;;;;;5044314;28;20376;-63
2023/03/18 07:26:49;;;;;;;;;;;11.10;99.90;;;;;;5052163;28;20002;-62
2023/03/18 07:29:15;;;;;;;;;;;11.10;99.90;;;;;;5052739;28;20011;-63
2023/03/18 07:31:42;;;;;;;;;;;11.20;99.90;;;;;;5060971;28;20013;-63
2023/03/18 07:34:08;;;;;;;;;;;11.30;99.90;;;;;;5049588;28;19913;-63
2023/03/18 07:36:35;;;;;;;;;;;11.30;99.90;;;;;;5049075;28;19912;-62
2023/03/18 07:39:02;;;;;;;;;;;11.30;99.90;;;;;;5049012;28;20304;-62
2023/03/18 07:41:28;;;;;;;;;;;11.40;99.90;;;;;;5044241;28;19928;-62
2023/03/18 07:43:54;;;;;;;;;;;11.40;99.90;;;;;;5046060;28;19929;-63
2023/03/18 07:46:20;;;;;;;;;;;11.50;99.90;;;;;;5052728;28;19920;-62
2023/03/18 07:48:46;;;;;;;;;;;11.50;99.90;;;;;;5041540;28;19913;-62
2023/03/18 07:51:13;;;;;;;;;;;11.50;99.90;;;;;;5044063;28;19920;-62
2023/03/18 07:53:39;;;;;;;;;;;11.60;99.90;;;;;;5046955;28;19914;-62
2023/03/18 07:56:08;;;;;;;;;;;11.60;99.90;;;;;;5045520;28;20436;-63
2023/03/18 07:58:34;;;;;;;;;;;11.60;99.90;;;;;;5050959;28;19912;-62
2023/03/18 08:01:00;;;;;;;;;;;11.50;99.90;;;;;;5049072;28;19927;-65
2023/03/18 08:03:26;;;;;;;;;;;11.40;99.90;;;;;;5057950;28;19916;-63
2023/03/18 08:05:52;;;;;;;;;;;11.40;99.90;;;;;;5063167;28;19966;-62
2023/03/18 08:08:18;;;;;;;;;;;11.40;99.90;;;;;;5056830;28;19917;-63
2023/03/18 08:10:43;;;;;;;;;;;11.40;99.90;;;;;;5048444;28;19917;-63
2023/03/18 08:13:10;;;;;;;;;;;11.40;99.90;;;;;;5056433;28;19913;-63
2023/03/18 08:15:35;;;;;;;;;;;11.40;99.90;;;;;;5044134;28;20288;-63
2023/03/18 08:18:01;;;;;;;;;;;11.40;99.90;;;;;;5057293;28;19912;-63
2023/03/18 08:20:27;;;;;;;;;;;11.40;99.90;;;;;;5047491;28;19957;-63
2023/03/18 08:22:53;;;;;;;;;;;11.40;99.90;;;;;;5055353;28;19920;-64
2023/03/18 08:25:20;;;;;;;;;;;11.40;99.90;;;;;;5052180;28;19912;-63
2023/03/18 08:27:46;;;;;;;;;;;11.40;99.90;;;;;;5055993;28;19920;-63
2023/03/18 08:30:12;;;;;;;;;;;11.40;99.90;;;;;;5049603;28;19913;-62
2023/03/18 08:32:38;;;;;;;;;;;11.40;99.90;;;;;;5039837;28;19916;-64
2023/03/18 08:35:04;;;;;;;;;;;11.40;99.90;;;;;;5036132;28;19927;-63
2023/03/18 08:37:30;;;;;;;;;;;11.40;99.90;;;;;;5033869;28;19913;-63
2023/03/18 08:39:55;;;;;;;;;;;11.40;99.90;;;;;;5038778;28;19920;-63
2023/03/18 08:42:21;;;;;;;;;;;11.40;99.90;;;;;;5036157;28;19978;-63
2023/03/18 08:44:47;;;;;;;;;;;11.40;99.90;;;;;;5035978;28;19996;-63
2023/03/18 08:47:13;;;;;;;;;;;11.40;99.90;;;;;;5035527;28;20379;-63
2023/03/18 08:49:39;;;;;;;;;;;11.40;99.90;;;;;;5034571;28;19913;-63
2023/03/18 08:52:05;;;;;;;;;;;11.40;99.90;;;;;;5035204;28;19917;-63
2023/03/18 08:54:31;;;;;;;;;;;11.40;99.90;;;;;;5036407;28;19936;-62
2023/03/18 08:56:58;;;;;;;;;;;11.40;99.90;;;;;;5039349;28;20357;-63
2023/03/18 08:59:23;;;;;;;;;;;11.40;99.90;;;;;;5036899;28;20407;-64
2023/03/18 09:01:49;;;;;;;;;;;11.30;99.90;;;;;;5039610;28;19921;-65
2023/03/18 09:04:15;;;;;;;;;;;11.20;99.90;;;;;;5043847;28;19913;-63
2023/03/18 09:06:41;;;;;;;;;;;11.20;99.90;;;;;;5041675;28;19913;-63
2023/03/18 09:09:07;;;;;;;;;;;11.20;99.90;;;;;;5042026;28;20372;-63
2023/03/18 09:11:33;;;;;;;;;;;11.20;99.90;;;;;;5030272;28;19967;-63
2023/03/18 09:13:59;;;;;;;;;;;11.20;99.90;;;;;;5039346;28;19913;-62
2023/03/18 09:16:25;;;;;;;;;;;11.10;99.90;;;;;;5041303;28;19924;-64
2023/03/18 09:18:50;;;;;;;;;;;11.20;99.90;;;;;;5039250;28;19920;-65
2023/03/18 09:21:16;;;;;;;;;;;11.30;99.90;;;;;;5036629;28;20446;-63
2023/03/18 09:23:42;;;;;;;;;;;11.40;99.90;;;;;;5038661;28;19913;-63
2023/03/18 09:26:07;;;;;;;;;;;11.40;99.90;;;;;;5040917;28;19919;-62
2023/03/18 09:28:33;;;;;;;;;;;11.50;99.90;;;;;;5041576;28;19913;-62
2023/03/18 09:30:58;;;;;;;;;;;11.60;99.90;;;;;;5037564;28;19921;-62
2023/03/18 09:33:24;;;;;;;;;;;11.60;99.90;;;;;;5048154;28;19921;-62
2023/03/18 09:35:50;;;;;;;;;;;11.70;99.90;;;;;;5045093;28;19917;-62
2023/03/18 09:38:16;;;;;;;;;;;11.80;99.90;;;;;;5042777;28;20392;-61
2023/03/18 09:41:05;;;;;;;;;;;11.80;99.90;;;;;;5040663;28;19922;-64
2023/03/18 09:43:35;;;;;;;;;;;11.80;99.90;;;;;;5033122;28;21187;-63
2023/03/18 09:46:20;;;;;;;;;;;11.70;99.90;;;;;;5035584;28;20372;-62
2023/03/18 09:48:52;;;;;;;;;;;11.70;99.90;;;;;;5037427;28;19913;-63
2023/03/18 09:51:20;;;;;;;;;;;11.90;99.90;;;;;;5042320;28;20008;-63
2023/03/18 09:53:49;;;;;;;;;;;11.90;99.90;;;;;;5039348;28;19913;-63
2023/03/18 09:56:16;;;;;;;;;;;11.90;99.90;;;;;;5039866;28;20311;-64
2023/03/18 09:59:06;;;;;;;;;;;11.80;99.90;;;;;;5039250;28;19913;-63
2023/03/18 10:01:34;;;;;;;;;;;12.00;99.90;;;;;;5037528;28;19932;-62
2023/03/18 10:04:12;;;;;;;;;;;12.10;99.90;;;;;;5037348;28;20323;-63
2023/03/18 10:06:41;;;;;;;;;;;12.20;99.90;;;;;;5040342;28;19982;-63
2023/03/18 10:09:18;;;;;;;;;;;12.30;99.90;;;;;;5047500;28;20360;-62
2023/03/18 10:11:46;;;;;;;;;;;12.30;99.90;;;;;;5048345;28;19936;-61
2023/03/18 10:14:27;;;;;;;;;;;12.20;99.90;;;;;;5046096;28;19956;-62
2023/03/18 10:16:52;;;;;;;;;;;12.20;99.90;;;;;;5038776;28;19913;-61
2023/03/18 10:19:18;;;;;;;;;;;12.30;99.90;;;;;;5039606;28;19913;-62
2023/03/18 10:21:53;;;;;;;;;;;12.30;99.90;;;;;;5040401;28;19921;-62
2023/03/18 10:24:35;;;;;;;;;;;12.50;99.90;;;;;;5042711;28;19967;-63
2023/03/18 10:27:03;;;;;;;;;;;12.60;99.90;;;;;;5040073;28;20305;-64
2023/03/18 10:29:29;;;;;;;;;;;12.60;99.90;;;;;;5040534;28;19913;-64
2023/03/18 10:32:01;;;;;;;;;;;12.60;99.90;;;;;;5043774;28;19917;-64
2023/03/18 10:34:31;;;;;;;;;;;12.50;99.90;;;;;;5040076;28;19919;-65
2023/03/18 10:37:02;;;;;;;;;;;12.50;99.90;;;;;;5041614;28;19974;-65
2023/03/18 10:39:28;;;;;;;;;;;12.40;99.90;;;;;;5039878;28;19913;-63
2023/03/18 10:41:55;;;;;;;;;;;12.30;99.90;;;;;;5039718;28;20372;-66
2023/03/18 10:44:25;;;;;;;;;;;12.40;99.90;;;;;;5041388;28;19917;-65
2023/03/18 10:46:57;;;;;;;;;;;12.50;99.90;;;;;;5030972;28;19913;-65
2023/03/18 10:49:24;;;;;;;;;;;12.30;99.90;;;;;;5038099;28;19967;-63
2023/03/18 10:51:51;;;;;;;;;;;12.10;99.90;;;;;;5042587;28;19926;-63
2023/03/18 10:54:31;;;;;;;;;;;12.20;99.90;;;;;;5036756;28;19949;-63
2023/03/18 10:56:57;;;;;;;;;;;12.30;99.90;;;;;;5038329;28;19913;-63
2023/03/18 10:59:24;;;;;;;;;;;12.20;99.90;;;;;;5037246;28;20427;-64
2023/03/18 11:01:52;;;;;;;;;;;12.20;99.90;;;;;;5041992;28;19920;-64
2023/03/18 11:04:58;;;;;;;;;;;12.20;99.90;;;;;;5034995;28;19920;-63
2023/03/18 11:07:25;;;;;;;;;;;12.10;99.90;;;;;;5040860;28;19921;-64
2023/03/18 11:09:51;;;;;;;;;;;11.90;99.90;;;;;;5039472;28;20331;-64
2023/03/18 11:12:21;;;;;;;;;;;11.90;99.90;;;;;;5041731;28;20000;-64
2023/03/18 11:14:48;;;;;;;;;;;11.80;99.90;;;;;;5037478;28;19948;-64
2023/03/18 11:17:21;;;;;;;;;;;11.90;99.90;;;;;;5036662;28;19913;-64
2023/03/18 11:19:48;;;;;;;;;;;11.90;99.90;;;;;;5037213;28;19997;-64
2023/03/18 11:22:16;;;;;;;;;;;11.90;99.90;;;;;;5031060;28;19913;-63
2023/03/18 11:24:42;;;;;;;;;;;12.00;99.90;;;;;;5041830;28;21048;-64
2023/03/18 11:27:17;;;;;;;;;;;12.10;99.90;;;;;;5039213;28;19913;-63
2023/03/18 11:29:52;;;;;;;;;;;12.20;99.90;;;;;;5036293;28;20404;-64
2023/03/18 11:32:26;;;;;;;;;;;12.30;99.90;;;;;;5032494;28;19920;-64
2023/03/18 11:34:59;;;;;;;;;;;12.30;99.90;;;;;;5032303;28;19939;-64
2023/03/18 11:37:40;;;;;;;;;;;12.30;99.90;;;;;;5041999;28;19928;-63
2023/03/18 11:40:17;;;;;;;;;;;12.20;99.90;;;;;;5044319;28;19917;-64
2023/03/18 11:42:43;;;;;;;;;;;12.20;99.90;;;;;;5037145;28;19956;-64
2023/03/18 11:45:28;;;;;;;;;;;12.30;99.90;;;;;;5040576;28;19920;-64
2023/03/18 11:47:54;;;;;;;;;;;12.40;99.90;;;;;;5035908;28;19917;-63
2023/03/18 11:50:24;;;;;;;;;;;12.30;99.90;;;;;;5047961;28;20236;-62
2023/03/18 11:52:53;;;;;;;;;;;12.40;99.90;;;;;;5042125;28;19920;-62
2023/03/18 11:55:37;;;;;;;;;;;12.40;99.90;;;;;;5041009;28;20395;-63
2023/03/18 11:58:15;;;;;;;;;;;12.50;99.90;;;;;;5038569;28;19924;-64
2023/03/18 12:00:49;;;;;;;;;;;12.60;99.90;;;;;;5040497;28;20356;-65
2023/03/18 12:03:15;;;;;;;;;;;12.70;99.90;;;;;;5037641;28;19917;-64
2023/03/18 12:05:42;;;;;;;;;;;12.90;99.90;;;;;;5034282;28;19913;-64
2023/03/18 12:08:27;;;;;;;;;;;13.00;99.90;;;;;;5041790;28;19913;-64
2023/03/18 12:10:56;;;;;;;;;;;12.80;99.90;;;;;;5040611;28;20456;-64
2023/03/18 12:13:47;;;;;;;;;;;12.90;99.90;;;;;;5042892;28;19913;-64
2023/03/18 12:16:21;;;;;;;;;;;12.90;99.90;;;;;;5015994;28;19913;-64
2023/03/18 12:18:52;;;;;;;;;;;12.90;99.90;;;;;;5040100;28;19947;-64
2023/03/18 12:21:26;;;;;;;;;;;13.20;99.90;;;;;;5036776;28;20443;-65
2023/03/18 12:23:55;;;;;;;;;;;13.90;99.90;;;;;;5041898;28;19912;-63
2023/03/18 12:26:46;;;;;;;;;;;14.30;99.90;;;;;;5051189;28;19939;-64
2023/03/18 12:29:32;;;;;;;;;;;14.20;99.90;;;;;;5052488;28;19913;-64
2023/03/18 12:31:58;;;;;;;;;;;14.60;99.90;;;;;;5048369;28;19923;-64
2023/03/18 12:34:41;;;;;;;;;;;15.00;99.90;;;;;;5052423;28;20016;-64
2023/03/18 12:37:14;;;;;;;;;;;15.70;99.90;;;;;;5054899;28;20267;-64
2023/03/18 12:39:59;;;;;;;;;;;16.40;99.90;;;;;;5049135;28;19917;-63
2023/03/18 12:42:33;;;;;;;;;;;16.30;99.90;;;;;;5050438;28;19972;-63
2023/03/18 12:45:00;;;;;;;;;;;16.10;99.90;;;;;;5057802;28;19966;-64
2023/03/18 12:47:28;;;;;;;;;;;16.20;99.90;;;;;;5046578;28;20015;-65
2023/03/18 12:50:12;;;;;;;;;;;16.20;99.90;;;;;;5051202;28;20280;-64
2023/03/18 12:52:48;;;;;;;;;;;15.60;99.90;;;;;;5047679;28;19974;-64
2023/03/18 12:55:22;;;;;;;;;;;15.10;99.90;;;;;;5055259;28;19959;-64
2023/03/18 12:57:53;;;;;;;;;;;14.70;99.90;;;;;;5061338;28;20344;-64
2023/03/18 13:00:22;;;;;;;;;;;14.70;99.90;;;;;;5046293;28;20391;-63
2023/03/18 13:02:53;;;;;;;;;;;15.00;99.90;;;;;;5041607;28;19979;-63
2023/03/18 13:05:26;;;;;;;;;;;15.30;99.90;;;;;;5060329;28;20356;-64
2023/03/18 13:08:10;;;;;;;;;;;15.20;99.90;;;;;;5059148;28;19913;-63
2023/03/18 13:10:36;;;;;;;;;;;15.10;99.90;;;;;;5041461;28;19913;-64
2023/03/18 13:13:05;;;;;;;;;;;15.10;99.90;;;;;;5050758;28;19979;-64
2023/03/18 13:15:41;;;;;;;;;;;15.60;99.90;;;;;;5036958;28;20278;-64
2023/03/18 13:18:19;;;;;;;;;;;16.00;99.90;;;;;;5041606;28;19913;-66
2023/03/18 13:20:46;;;;;;;;;;;16.10;99.90;;;;;;5043191;28;20015;-65
2023/03/18 13:23:30;;;;;;;;;;;15.80;99.90;;;;;;5037015;28;19936;-64
2023/03/18 13:26:04;;;;;;;;;;;15.30;99.90;;;;;;5038237;28;19921;-63
2023/03/18 13:28:45;;;;;;;;;;;15.10;99.90;;;;;;5044727;28;19917;-64
2023/03/18 13:31:36;;;;;;;;;;;14.60;99.90;;;;;;5048451;28;19913;-63
2023/03/18 13:34:02;;;;;;;;;;;15.10;99.90;;;;;;5037236;28;19983;-65
2023/03/18 13:36:31;;;;;;;;;;;15.50;99.90;;;;;;5035560;28;20342;-63
2023/03/18 13:39:03;;;;;;;;;;;15.70;99.90;;;;;;5044097;28;19913;-63
2023/03/18 13:41:34;;;;;;;;;;;15.70;99.90;;;;;;5043055;28;20016;-63
2023/03/18 13:44:04;;;;;;;;;;;15.40;99.90;;;;;;5051657;28;20358;-63
2023/03/18 13:46:31;;;;;;;;;;;15.00;99.90;;;;;;5047383;28;19913;-64
2023/03/18 13:48:58;;;;;;;;;;;15.20;99.90;;;;;;5049945;28;20273;-64
2023/03/18 13:51:24;;;;;;;;;;;15.30;99.90;;;;;;5063863;28;19912;-64
2023/03/18 13:53:53;;;;;;;;;;;15.40;99.90;;;;;;5060705;28;19913;-64
2023/03/18 13:56:37;;;;;;;;;;;15.30;99.90;;;;;;5057027;28;19981;-63
2023/03/18 13:59:05;;;;;;;;;;;15.30;99.90;;;;;;5047456;28;19936;-66
2023/03/18 14:01:34;;;;;;;;;;;15.30;99.90;;;;;;5045152;28;19921;-64
2023/03/18 14:04:15;;;;;;;;;;;15.20;99.90;;;;;;5051430;28;19917;-64
2023/03/18 14:06:45;;;;;;;;;;;15.20;99.90;;;;;;5043610;28;19957;-64
2023/03/18 14:09:21;;;;;;;;;;;14.60;99.90;;;;;;5040730;28;19952;-64
2023/03/18 14:11:50;;;;;;;;;;;14.80;99.90;;;;;;5047499;28;19913;-64
2023/03/18 14:14:34;;;;;;;;;;;15.30;99.90;;;;;;5043697;28;19922;-64
2023/03/18 14:17:01;;;;;;;;;;;15.60;99.90;;;;;;5057324;28;19916;-63
2023/03/18 14:19:31;;;;;;;;;;;15.30;99.90;;;;;;5066173;28;20372;-65
2023/03/18 14:22:20;;;;;;;;;;;15.30;99.90;;;;;;5054336;28;20344;-64
2023/03/18 14:24:46;;;;;;;;;;;15.40;99.90;;;;;;5046958;28;19927;-64
2023/03/18 14:27:17;;;;;;;;;;;15.60;99.90;;;;;;5047705;28;20414;-65